Aigle Des Mers — FO4883 — position and weather

sailwx.info

Track history (hours):
 
Tides and Currents Weather Stations Pressure Air Temp Water Temp Dewpoint Dewpoint Depression Visibility Wind Speed Wind Dir Waves Ship Positions

Aigle Des Mers

Last reported at 2015-Aug-31 19:33 UTC. Time now 2015-Sep-01 08:03 UTC.
Position N 48°16' W 004°57'.

Type: Fishing. MMSI: 227318010.

Date/timePositionNaut miles runAvg speedWind from/ knotsBaromVisibWave heightAir tempDewpointWater temp
2015-Aug-31 19:33N 48°16' W 004°57'27 1.8
2015-Aug-31 04:33N 48°06' W 004°20'0 0.0
2015-Aug-31 03:34N 48°06' W 004°20'6 5.9
2015-Aug-31 02:33N 48°12' W 004°22'0 0.1
2015-Aug-31 01:33N 48°12' W 004°22'3 3.0
2015-Aug-31 00:34N 48°09' W 004°24'1 0.9
2015-Aug-30 23:33N 48°09' W 004°26'8 8.4
2015-Aug-30 22:33N 48°09' W 004°38'8 8.3
2015-Aug-30 21:33N 48°12' W 004°50'5 4.5
2015-Aug-30 20:34N 48°15' W 004°55'1 1.0
2015-Aug-30 19:33N 48°16' W 004°54'5 5.5
2015-Aug-30 18:33N 48°11' W 004°50'9 9.3
2015-Aug-30 17:33N 48°09' W 004°37'12 8.9
2015-Aug-30 16:12N 48°06' W 004°19'  
2015-Aug-28 03:29N 48°06' W 004°19'0 0.0
2015-Aug-28 02:33N 48°06' W 004°19'0 0.0
2015-Aug-28 01:33N 48°06' W 004°19'4 4.3
2015-Aug-28 00:33N 48°10' W 004°22'4 4.0
2015-Aug-27 23:34N 48°09' W 004°28'9 9.2
2015-Aug-27 22:34N 48°09' W 004°41'9 8.7
2015-Aug-27 21:34N 48°11' W 004°54'5 5.2
2015-Aug-27 20:33N 48°16' W 004°58'2 1.9
2015-Aug-27 19:34N 48°16' W 004°55'4 4.3
2015-Aug-27 18:34N 48°13' W 004°50'9 8.8
2015-Aug-27 17:33N 48°10' W 004°38'13 9.1
2015-Aug-27 16:08N 48°06' W 004°19'0 0.0
2015-Aug-27 09:30N 48°06' W 004°20'  
2015-Aug-23 23:33N 48°07' W 004°19'4 4.1
2015-Aug-23 22:33N 48°09' W 004°24'1 1.0
2015-Aug-23 21:34N 48°09' W 004°26'8 8.5
2015-Aug-23 20:33N 48°08' W 004°38'8 8.3
2015-Aug-23 19:33N 48°11' W 004°50'5 5.0
2015-Aug-23 18:33N 48°10' W 004°43'9 8.5
2015-Aug-23 17:33N 48°07' W 004°31'8 7.7
2015-Aug-23 16:34N 48°06' W 004°19'  
Track history (hours):
 
Tides and Currents Weather Stations Pressure Air Temp Water Temp Dewpoint Dewpoint Depression Visibility Wind Speed Wind Dir Waves Ship Positions

Aigle Des Mers

Last reported at 2015-Aug-31 19:33 UTC. Time now 2015-Sep-01 08:03 UTC.
Position N 48°16' W 004°57'.

Type: Fishing. MMSI: 227318010.

Date/timePositionNaut miles runAvg speedWind from/ knotsBaromVisibWave heightAir tempDewpointWater temp
2015-Aug-31 19:33N 48°16' W 004°57'27 1.8
2015-Aug-31 04:33N 48°06' W 004°20'0 0.0
2015-Aug-31 03:34N 48°06' W 004°20'6 5.9
2015-Aug-31 02:33N 48°12' W 004°22'0 0.1
2015-Aug-31 01:33N 48°12' W 004°22'3 3.0
2015-Aug-31 00:34N 48°09' W 004°24'1 0.9
2015-Aug-30 23:33N 48°09' W 004°26'8 8.4
2015-Aug-30 22:33N 48°09' W 004°38'8 8.3
2015-Aug-30 21:33N 48°12' W 004°50'5 4.5
2015-Aug-30 20:34N 48°15' W 004°55'1 1.0
2015-Aug-30 19:33N 48°16' W 004°54'5 5.5
2015-Aug-30 18:33N 48°11' W 004°50'9 9.3
2015-Aug-30 17:33N 48°09' W 004°37'12 8.9
2015-Aug-30 16:12N 48°06' W 004°19'  
2015-Aug-28 03:29N 48°06' W 004°19'0 0.0
2015-Aug-28 02:33N 48°06' W 004°19'0 0.0
2015-Aug-28 01:33N 48°06' W 004°19'4 4.3
2015-Aug-28 00:33N 48°10' W 004°22'4 4.0
2015-Aug-27 23:34N 48°09' W 004°28'9 9.2
2015-Aug-27 22:34N 48°09' W 004°41'9 8.7
2015-Aug-27 21:34N 48°11' W 004°54'5 5.2
2015-Aug-27 20:33N 48°16' W 004°58'2 1.9
2015-Aug-27 19:34N 48°16' W 004°55'4 4.3
2015-Aug-27 18:34N 48°13' W 004°50'9 8.8
2015-Aug-27 17:33N 48°10' W 004°38'13 9.1
2015-Aug-27 16:08N 48°06' W 004°19'0 0.0
2015-Aug-27 09:30N 48°06' W 004°20'  
2015-Aug-23 23:33N 48°07' W 004°19'4 4.1
2015-Aug-23 22:33N 48°09' W 004°24'1 1.0
2015-Aug-23 21:34N 48°09' W 004°26'8 8.5
2015-Aug-23 20:33N 48°08' W 004°38'8 8.3
2015-Aug-23 19:33N 48°11' W 004°50'5 5.0
2015-Aug-23 18:33N 48°10' W 004°43'9 8.5
2015-Aug-23 17:33N 48°07' W 004°31'8 7.7
2015-Aug-23 16:34N 48°06' W 004°19'  

Dump ship's entire track history